Latest Weather Observations for Coonawarra

IDS60801

Issued at 6:05 am CDT Monday 24 November 2014 (issued every 30 minutes, with the page automatically refreshed every 10 minutes)

About weather observations | Map of weather stations | Latest weather observations for SA | Other Formats
Station Details ID: 026091 Name: COONAWARRA Lat: -37.29 Lon: 140.83 Height: 57.0 m
Data from the previous 72 hours. | See also: Recent months at Coonawarra
Date/Time
CDT
Temp
°C
App
Temp
°C
Dew
Point
Rel
Hum
%
Delta-T
°C
Wind Press
QNH
hPa
Press
MSL
hPa
Rain
since 9 am
mm
Dir
 
Spd
km/h
Gust
km/h
Spd
kts
Gust
kts
24/06:00am 13.4 12.3 11.9 91 0.8 SSW 9 11 5 6 1009.2 1009.1 0.4
24/05:30am 13.7 12.0 11.1 84 1.4 S 11 15 6 8 1008.7 1008.6 0.2
24/05:00am 13.9 12.5 10.9 82 1.6 SE 9 13 5 7 1008.0 1007.9 0.2
24/04:30am 13.7 12.4 11.3 85 1.3 S 9 11 5 6 1009.1 1009.0 0.2
24/04:00am 14.5 14.0 10.9 79 1.9 S 4 11 2 6 1008.8 1008.7 0.0
24/03:30am 14.4 12.3 9.8 74 2.4 S 11 15 6 8 1007.7 1007.6 0.0
24/03:00am 14.5 12.8 9.7 73 2.5 S 9 15 5 8 1008.3 1008.2 0.0
24/02:30am 14.8 12.7 9.6 71 2.7 S 11 15 6 8 1008.7 1008.6 0.0
24/02:00am 14.7 12.2 9.7 72 2.6 ESE 13 17 7 9 1008.2 1008.1 0.0
24/01:30am 14.7 12.5 9.5 71 2.7 SE 11 17 6 9 1008.9 1008.8 0.0
24/01:00am 14.5 12.2 9.0 69 2.8 SE 11 15 6 8 1009.9 1009.8 0.0
24/12:30am 14.6 12.2 8.7 67 3.0 SSE 11 15 6 8 1010.8 1010.7 0.0
24/12:00am 15.1 12.8 9.1 67 3.1 SSE 11 13 6 7 1011.3 1011.2 0.0
 
Date/Time
CDT
Temp
°C
App
Temp
°C
Dew
Point
Rel
Hum
%
Delta-T
°C
Wind Press
QNH
hPa
Press
MSL
hPa
Rain
since 9 am
mm
Dir
 
Spd
km/h
Gust
km/h
Spd
kts
Gust
kts
23/11:30pm 15.6 13.4 9.4 66 3.2 SSE 11 17 6 9 1011.6 1011.5 0.0
23/11:00pm 16.2 13.8 10.1 67 3.2 SSE 13 19 7 10 1011.8 1011.7 0.0
23/10:30pm 16.4 14.3 9.7 64 3.5 SSE 11 17 6 9 1012.1 1012.0 0.0
23/10:00pm 16.6 14.6 8.6 59 4.1 S 9 13 5 7 1012.2 1012.1 0.0
23/09:30pm 16.9 14.9 8.8 59 4.2 SSE 9 11 5 6 1012.1 1012.0 0.0
23/09:00pm 17.9 15.4 8.4 53 4.9 S 11 15 6 8 1011.8 1011.7 0.0
23/08:30pm 18.4 16.7 9.7 57 4.6 S 9 13 5 7 1011.7 1011.6 0.0
23/08:00pm 18.9 16.1 9.9 56 4.8 SSW 15 19 8 10 1011.5 1011.4 0.0
23/07:30pm 19.8 17.4 9.9 53 5.3 SSW 13 19 7 10 1011.3 1011.2 0.0
23/07:00pm 21.4 18.0 9.0 45 6.6 SW 17 20 9 11 1011.9 1011.8 0.0
23/06:30pm 22.6 19.0 9.7 44 7.0 WSW 19 26 10 14 1012.0 1011.9 0.0
23/06:00pm 23.5 19.8 10.0 42 7.4 SW 20 30 11 16 1011.1 1011.0 0.0
23/05:30pm 26.5 23.5 4.3 24 11.2 NW 9 15 5 8 1010.2 1010.1 0.0
23/05:00pm 26.4 23.3 3.5 23 11.4 WNW 9 13 5 7 1010.3 1010.2 0.0
23/04:30pm 26.9 23.3 3.1 21 11.8 W 11 19 6 10 1011.0 1010.9 0.0
23/04:00pm 26.0 20.1 1.6 20 11.7 NW 22 30 12 16 1011.6 1011.5 0.0
23/03:30pm 26.5 20.3 2.2 20 11.8 NW 24 33 13 18 1011.6 1011.5 0.0
23/03:00pm 26.5 21.4 4.3 24 11.2 W 20 28 11 15 1011.6 1011.5 0.0
23/02:30pm 26.0 21.9 6.2 28 10.3 NW 17 26 9 14 1011.7 1011.6 0.0
23/02:00pm 25.0 21.9 7.4 32 9.3 W 13 17 7 9 1011.9 1011.8 0.0
23/01:30pm 24.4 21.3 7.3 33 9.0 WNW 13 22 7 12 1012.0 1011.9 0.0
23/01:00pm 24.1 21.3 8.7 37 8.3 W 13 19 7 10 1012.1 1012.0 0.0
23/12:30pm 23.0 19.3 8.0 38 7.9 W 17 26 9 14 1012.3 1012.2 0.0
23/12:00pm 22.2 19.8 6.8 37 7.9 WNW 9 20 5 11 1012.3 1012.2 0.0
23/11:30am 20.7 18.0 7.3 42 6.9 W 11 17 6 9 1012.4 1012.3 0.0
23/11:00am 19.9 18.3 8.6 48 5.9 NNW 7 13 4 7 1012.6 1012.5 0.0
23/10:30am 18.7 17.6 9.9 56 4.7 NNW 6 11 3 6 1012.9 1012.8 0.0
23/10:00am 17.5 16.8 11.4 67 3.3 NE 6 9 3 5 1013.0 1012.9 0.0
23/09:30am 16.5 15.6 11.3 71 2.8 W 7 11 4 6 1013.4 1013.3 0.0
23/09:00am 15.0 14.2 12.8 87 1.2 NNE 9 15 5 8 1013.7 1013.6 0.0
23/08:30am 13.9 13.6 13.4 97 0.3 NNE 7 11 4 6 1013.7 1013.6 0.0
23/08:00am 12.7 12.1 12.3 97 0.2 NNE 7 11 4 6 1013.6 1013.5 0.0
23/07:30am 12.2 11.1 11.8 97 0.2 N 9 11 5 6 1013.3 1013.2 0.0
23/07:00am 11.3 10.5 11.1 99 0.1 NNE 6 9 3 5 1012.8 1012.7 0.0
23/06:30am 10.9 9.8 10.7 99 0.1 NNE 7 11 4 6 1012.4 1012.3 0.0
23/06:00am 10.4 9.2 10.2 99 0.1 NNE 7 9 4 5 1012.1 1012.0 0.0
23/05:30am 10.5 10.2 10.1 97 0.2 W 2 7 1 4 1011.8 1011.7 0.0
23/05:00am 10.0 9.9 9.6 97 0.2 CALM 0 0 0 0 1011.6 1011.5 0.0
23/04:30am 10.2 10.2 9.8 97 0.2 CALM 0 0 0 0 1011.4 1011.3 0.0
23/04:00am 10.3 9.9 9.9 97 0.2 WNW 2 6 1 3 1011.4 1011.3 0.0
23/03:30am 10.3 9.2 9.9 97 0.2 WNW 6 7 3 4 1011.3 1011.2 0.0
23/03:00am 10.3 9.6 9.9 97 0.2 N 4 7 2 4 1011.2 1011.1 0.0
23/02:30am 9.7 8.4 9.3 97 0.2 W 6 7 3 4 1011.4 1011.3 0.0
23/02:00am 9.1 8.9 8.9 99 0.1 CALM 0 0 0 0 1011.4 1011.3 0.0
23/01:30am 9.4 8.3 8.6 95 0.4 WSW 4 6 2 3 1011.6 1011.5 0.0
23/01:00am 9.8 8.2 8.8 93 0.5 WSW 7 9 4 5 1011.8 1011.7 0.0
23/12:30am 11.0 9.7 9.8 92 0.6 SW 7 9 4 5 1011.7 1011.6 0.0
23/12:00am 12.0 11.2 10.9 93 0.6 SW 6 6 3 3 1011.8 1011.7 0.0
 
Date/Time
CDT
Temp
°C
App
Temp
°C
Dew
Point
Rel
Hum
%
Delta-T
°C
Wind Press
QNH
hPa
Press
MSL
hPa
Rain
since 9 am
mm
Dir
 
Spd
km/h
Gust
km/h
Spd
kts
Gust
kts
22/11:30pm 13.3 13.5 11.8 91 0.8 SSW 2 7 1 4 1011.6 1011.5 0.0
22/11:00pm 13.8 12.1 12.3 91 0.8 SW 13 15 7 8 1011.2 1011.1 0.0
22/10:30pm 15.3 14.0 12.6 84 1.5 SW 11 15 6 8 1011.4 1011.3 0.0
22/10:00pm 16.1 14.3 12.1 77 2.2 SW 13 20 7 11 1011.0 1010.9 0.0
22/09:30pm 16.6 15.6 12.2 75 2.4 SW 9 13 5 7 1010.5 1010.4 0.0
22/09:00pm 16.1 14.7 12.1 77 2.2 SW 11 13 6 7 1010.1 1010.0 0.0
22/08:30pm 17.3 15.8 12.0 71 2.9 WSW 11 19 6 10 1009.8 1009.7 0.0
22/08:00pm 18.4 15.8 12.1 66 3.5 SW 17 26 9 14 1008.9 1008.8 0.0
22/07:30pm 20.0 17.4 11.9 59 4.5 SW 17 24 9 13 1008.3 1008.2 0.0
22/07:00pm 21.9 18.3 12.0 53 5.6 SW 22 33 12 18 1007.5 1007.4 0.0
22/06:30pm 23.6 18.7 11.4 46 6.9 WSW 28 41 15 22 1006.8 1006.7 0.0
22/06:00pm 25.7 20.8 12.6 44 7.6 W 30 43 16 23 1006.4 1006.3 0.0
22/05:30pm 27.2 22.1 12.0 38 8.8 W 30 41 16 22 1005.8 1005.7 0.0
22/05:00pm 27.3 21.5 12.6 40 8.6 W 35 46 19 25 1005.7 1005.6 0.0
22/04:32pm 27.7 22.5 12.9 40 8.7 W 32 50 17 27 1005.1 1005.1 0.0
22/04:30pm 27.1 21.6 12.6 40 8.5 W 33 50 18 27 1005.1 1005.1 0.0
22/04:11pm 27.8 22.5 13.1 40 8.7 W 33 52 18 28 1005.1 1005.1 0.0
22/04:00pm 28.2 22.0 12.8 38 9.1 W 37 52 20 28 1005.5 1005.4 0.0
22/03:30pm 28.5 21.6 11.6 35 9.8 WNW 39 61 21 33 1005.2 1005.2 0.0
22/03:00pm 29.3 22.5 10.6 31 10.7 WNW 37 57 20 31 1004.6 1004.6 0.0
22/02:30pm 30.1 23.8 9.8 28 11.5 NW 33 52 18 28 1004.5 1004.5 0.0
22/02:00pm 30.6 24.2 9.3 26 12.0 NW 33 57 18 31 1004.7 1004.7 0.0
22/01:33pm 29.7 24.3 9.4 28 11.4 NW 28 48 15 26 1005.2 1005.2 0.0
22/01:30pm 30.9 25.7 10.3 28 11.8 NW 28 41 15 22 1005.4 1005.3 0.0
22/01:00pm 28.9 23.3 10.2 31 10.6 NNW 30 50 16 27 1005.8 1005.7 0.0
22/12:54pm 28.5 22.8 9.8 31 10.5 NNW 30 50 16 27 1006.0 1005.9 0.0
22/12:30pm 27.5 21.2 9.0 31 10.2 NNW 32 44 17 24 1006.4 1006.3 0.0
22/12:05pm 27.2 19.9 7.4 28 10.6 N 35 54 19 29 1006.6 1006.5 0.0
22/12:00pm 27.7 19.8 7.7 28 10.8 N 39 56 21 30 1006.6 1006.5 0.0
22/11:33am 26.9 19.4 6.4 27 10.8 N 35 54 19 29 1006.7 1006.6 0.0
22/11:30am 27.2 19.8 6.6 27 10.9 N 35 52 19 28 1006.7 1006.6 0.0
22/11:03am 25.7 18.7 6.0 28 10.2 N 32 52 17 28 1006.8 1006.7 0.0
22/11:00am 25.7 18.8 6.6 29 10.0 N 32 46 17 25 1006.9 1006.8 0.0
22/10:41am 26.0 19.1 6.3 28 10.3 N 32 50 17 27 1007.0 1006.9 0.0
22/10:30am 25.4 18.7 5.8 28 10.1 N 30 46 16 25 1006.9 1006.8 0.0
22/10:27am 25.3 19.1 6.2 29 9.9 N 28 46 15 25 1006.9 1006.8 0.0
22/10:00am 23.8 18.3 7.5 35 8.6 N 26 39 14 21 1007.4 1007.3 0.0
22/09:30am 21.7 16.2 7.5 40 7.4 N 26 35 14 19 1007.5 1007.4 0.0
22/09:00am 18.7 15.3 9.2 54 5.0 NNE 17 26 9 14 1007.4 1007.3 0.4
22/08:30am 15.9 13.5 10.0 68 3.1 NE 13 20 7 11 1008.0 1007.9 0.4
22/08:10am 14.6 11.2 10.6 77 2.1 NE 19 26 10 14 1007.5 1007.4 0.4
22/08:00am 14.2 12.9 11.4 83 1.5 ENE 9 13 5 7 1009.5 1009.4 0.4
22/07:30am 15.0 13.5 9.2 68 3.0 SW 7 19 4 10 1010.0 1009.9 0.2
22/07:27am 15.0 13.8 9.4 69 2.9 SSE 6 15 3 8 1009.4 1009.3 0.2
22/07:00am 14.7 12.7 8.6 67 3.1 E 9 13 5 7 1007.4 1007.3 0.2
22/06:30am 14.1 11.3 8.6 69 2.8 ENE 13 22 7 12 1007.8 1007.7 0.2
22/06:00am 13.6 10.8 8.6 72 2.5 ESE 13 17 7 9 1008.1 1008.0 0.2
22/05:30am 13.7 11.3 8.5 71 2.6 ESE 11 17 6 9 1008.4 1008.3 0.2
22/05:00am 13.7 11.5 7.9 68 2.9 SE 9 11 5 6 1009.0 1008.9 0.2
22/04:30am 13.5 10.5 6.2 61 3.5 S 11 13 6 7 1009.0 1008.9 0.2
22/04:00am 14.3 11.9 5.4 55 4.2 SE 7 11 4 6 1008.4 1008.3 0.2
22/03:30am 15.2 12.0 5.3 51 4.7 E 11 13 6 7 1008.8 1008.7 0.2
22/03:00am 15.7 12.8 4.7 48 5.2 S 9 15 5 8 1009.4 1009.3 0.2
22/02:35am 12.5 6.2 5.7 63 3.2 SSW 28 54 15 29 1010.2 1010.1 0.2
22/02:30am 12.7 10.4 5.7 62 3.3 E 7 11 4 6 1008.5 1008.4 0.2
22/02:00am 11.6 8.7 6.3 70 2.5 ENE 11 13 6 7 1008.1 1008.0 0.2
22/01:30am 12.0 9.4 6.3 68 2.7 E 9 13 5 7 1008.4 1008.3 0.2
22/01:00am 11.3 8.9 6.9 74 2.1 ENE 9 11 5 6 1009.0 1008.9 0.2
22/12:30am 11.6 8.8 7.0 73 2.2 ENE 11 11 6 6 1009.7 1009.6 0.2
22/12:00am 12.4 9.6 6.8 68 2.7 ENE 11 13 6 7 1010.4 1010.3 0.2
 
Date/Time
CDT
Temp
°C
App
Temp
°C
Dew
Point
Rel
Hum
%
Delta-T
°C
Wind Press
QNH
hPa
Press
MSL
hPa
Rain
since 9 am
mm
Dir
 
Spd
km/h
Gust
km/h
Spd
kts
Gust
kts
21/11:30pm 12.2 9.5 7.5 73 2.3 ENE 11 13 6 7 1011.0 1010.9 0.2
21/11:00pm 12.4 10.9 9.0 80 1.7 NNE 7 9 4 5 1011.6 1011.5 0.2
21/10:30pm 13.5 11.5 8.7 73 2.4 ENE 9 11 5 6 1011.9 1011.8 0.2
21/10:00pm 13.9 13.7 9.2 73 2.4 CALM 0 0 0 0 1011.9 1011.8 0.2
21/09:30pm 14.7 14.3 8.1 64 3.3 CALM 0 0 0 0 1011.7 1011.6 0.2
21/09:00pm 14.9 14.1 6.7 58 4.0 CALM 0 0 0 0 1011.8 1011.7 0.2
21/08:30pm 15.2 13.2 7.1 58 4.0 WSW 7 9 4 5 1011.7 1011.6 0.2
21/08:00pm 17.4 14.8 6.0 47 5.6 WNW 9 11 5 6 1011.5 1011.4 0.2
21/07:30pm 19.4 16.0 4.2 36 7.3 WNW 11 15 6 8 1011.4 1011.3 0.2
21/07:00pm 21.3 16.7 1.6 27 9.1 WNW 15 20 8 11 1011.2 1011.1 0.2
21/06:30pm 22.1 18.1 2.8 28 9.2 WNW 13 20 7 11 1010.8 1010.7 0.2
21/06:00pm 22.5 17.4 2.8 27 9.4 WNW 19 30 10 16 1010.8 1010.7 0.2
21/05:30pm 22.9 17.5 2.6 26 9.7 WNW 20 32 11 17 1010.6 1010.5 0.2
21/05:00pm 23.3 17.3 3.6 27 9.6 NW 24 35 13 19 1010.5 1010.4 0.2
21/04:30pm 23.8 19.5 5.1 29 9.4 WNW 17 30 9 16 1010.3 1010.2 0.2
21/04:00pm 23.5 19.3 5.5 31 9.1 NW 17 24 9 13 1010.3 1010.2 0.2
21/03:30pm 23.2 19.9 6.5 34 8.6 NW 13 22 7 12 1010.4 1010.3 0.2
21/03:00pm 22.7 19.8 8.1 39 7.7 NNW 13 17 7 9 1010.9 1010.8 0.2
21/02:30pm 22.2 18.7 7.4 38 7.7 W 15 22 8 12 1011.1 1011.0 0.2
21/02:00pm 22.1 17.8 7.8 39 7.5 WNW 20 30 11 16 1011.4 1011.3 0.2
21/01:30pm 21.2 18.2 7.5 41 7.1 NW 13 26 7 14 1011.7 1011.6 0.2
21/01:00pm 20.8 16.8 8.2 44 6.6 NNW 19 28 10 15 1011.9 1011.8 0.2
21/12:30pm 19.9 16.9 7.7 45 6.3 WNW 13 24 7 13 1012.2 1012.1 0.2
21/12:00pm 19.2 17.1 8.2 49 5.7 WNW 9 17 5 9 1012.5 1012.4 0.2
21/11:30am 18.5 16.3 8.0 50 5.4 W 9 17 5 9 1012.5 1012.4 0.2
21/11:00am 17.4 14.4 7.5 52 5.0 W 13 20 7 11 1012.8 1012.7 0.2
21/10:30am 16.7 13.9 6.8 52 4.9 WSW 11 19 6 10 1012.9 1012.8 0.0
21/10:00am 16.1 13.3 7.0 54 4.5 W 11 20 6 11 1013.1 1013.0 0.0
21/09:30am 15.6 12.5 7.4 58 4.1 W 13 20 7 11 1013.1 1013.0 0.0
21/09:00am 15.1 12.9 7.9 62 3.6 WSW 9 13 5 7 1013.1 1013.0 2.8
21/08:30am 14.5 12.8 8.3 66 3.1 WSW 7 13 4 7 1013.0 1012.9 2.8
21/08:00am 13.5 13.5 9.8 78 1.9 CALM 0 7 0 4 1012.6 1012.5 2.8
21/07:30am 12.0 12.2 10.7 92 0.7 CALM 0 0 0 0 1012.1 1012.0 2.8
21/07:00am 10.6 10.7 10.0 96 0.3 CALM 0 0 0 0 1011.8 1011.7 2.8
21/06:30am 9.6 8.1 9.2 97 0.2 N 7 9 4 5 1011.3 1011.2 2.8

Other Formats:

Comma delimited format used in spreadsheet applications
http://www.bom.gov.au/fwo/IDS60801/IDS60801.94817.axf

JavaScript Object Notation format (JSON) in row-major order
http://www.bom.gov.au/fwo/IDS60801/IDS60801.94817.json